Time;durP1;ratioP1;P1;durP2;ratioP2;P2;SDS_P1;SDS_P2;PMS_P1;PMS_P2;Temp;Humidity;BMP_temperature;BMP_pressure;BME280_temperature;BME280_humidity;BME280_pressure;Samples;Min_cycle;Max_cycle;Signal;HPM_P1;HPM_P2
2021/06/11 00:00:54;;;;;;;11.18;9.13;;;17.10;99.90;;;;;;4989291;28;20041;-75
2021/06/11 00:03:20;;;;;;;10.13;9.02;;;16.80;99.90;;;;;;4989751;28;20120;-75
2021/06/11 00:05:46;;;;;;;12.57;9.63;;;17.70;99.90;;;;;;4989888;28;20064;-76
2021/06/11 00:08:12;;;;;;;12.50;9.73;;;16.80;99.90;;;;;;4989492;28;20037;-76
2021/06/11 00:10:38;;;;;;;11.40;9.70;;;16.70;99.90;;;;;;4988986;28;20371;-76
2021/06/11 00:13:04;;;;;;;12.15;9.32;;;16.90;99.90;;;;;;4989221;28;20071;-75
2021/06/11 00:15:30;;;;;;;13.00;10.18;;;17.60;99.90;;;;;;4989369;28;20421;-75
2021/06/11 00:17:56;;;;;;;11.85;9.60;;;16.70;99.90;;;;;;4989419;28;20031;-75
2021/06/11 00:20:23;;;;;;;14.02;10.68;;;16.40;99.90;;;;;;4988622;28;20026;-75
2021/06/11 00:22:49;;;;;;;12.35;11.02;;;17.00;99.90;;;;;;4988926;28;20103;-76
2021/06/11 00:25:24;;;;;;;14.88;10.45;;;16.30;99.90;;;;;;4989276;28;20448;-75
2021/06/11 00:27:51;;;;;;;11.00;9.68;;;16.20;99.90;;;;;;4989419;28;20501;-76
2021/06/11 00:30:19;;;;;;;10.88;9.77;;;16.30;99.90;;;;;;4988557;28;20042;-76
2021/06/11 00:32:45;;;;;;;14.15;10.25;;;16.20;99.90;;;;;;4989163;28;20023;-75
2021/06/11 00:35:11;;;;;;;12.70;10.93;;;16.30;99.90;;;;;;4989012;28;20117;-76
2021/06/11 00:37:37;;;;;;;15.52;10.50;;;16.30;99.90;;;;;;4991298;28;20372;-76
2021/06/11 00:40:06;;;;;;;14.38;10.50;;;16.30;99.90;;;;;;4990829;28;20095;-75
2021/06/11 00:42:33;;;;;;;15.18;11.27;;;16.30;99.90;;;;;;4992538;28;20037;-75
2021/06/11 00:45:00;;;;;;;11.77;10.55;;;16.60;99.90;;;;;;4992082;28;20026;-76
2021/06/11 00:47:25;;;;;;;11.30;10.10;;;16.40;99.90;;;;;;4992345;28;20037;-76
2021/06/11 00:49:51;;;;;;;14.52;9.68;;;17.00;99.90;;;;;;4991358;28;20039;-76
2021/06/11 00:52:17;;;;;;;10.75;9.65;;;16.50;99.90;;;;;;4992301;28;20030;-76
2021/06/11 00:54:44;;;;;;;11.55;10.20;;;16.30;99.90;;;;;;4991956;28;20022;-75
2021/06/11 00:57:09;;;;;;;12.85;10.65;;;16.40;99.90;;;;;;4992183;28;20127;-76
2021/06/11 00:59:37;;;;;;;13.60;10.30;;;16.60;99.90;;;;;;5011593;28;20615;-77
2021/06/11 01:02:03;;;;;;;11.48;10.38;;;17.50;99.90;;;;;;5011875;28;20109;-76
2021/06/11 01:04:29;;;;;;;12.45;10.05;;;17.00;99.90;;;;;;5011642;28;20105;-76
2021/06/11 01:06:54;;;;;;;11.27;10.02;;;16.40;99.90;;;;;;5011648;28;20033;-76
2021/06/11 01:09:20;;;;;;;13.75;10.32;;;16.40;99.90;;;;;;5011002;28;20053;-76
2021/06/11 01:11:47;;;;;;;11.15;10.02;;;16.30;99.90;;;;;;5011777;28;20056;-76
2021/06/11 01:14:13;;;;;;;10.65;9.55;;;16.40;99.90;;;;;;5011398;28;20072;-76
2021/06/11 01:16:39;;;;;;;13.38;10.70;;;16.20;99.90;;;;;;5011604;28;20026;-76
2021/06/11 01:19:08;;;;;;;10.63;9.55;;;16.20;99.90;;;;;;5011053;28;20026;-76
2021/06/11 01:21:51;;;;;;;14.73;10.23;;;16.40;99.90;;;;;;5011682;28;20057;-76
2021/06/11 01:24:21;;;;;;;12.88;10.52;;;17.00;99.90;;;;;;4994012;28;20034;-76
2021/06/11 01:26:52;;;;;;;11.40;10.20;;;15.90;99.90;;;;;;4991938;28;20042;-76
2021/06/11 01:29:23;;;;;;;13.55;10.02;;;16.70;99.90;;;;;;4989625;28;20518;-76
2021/06/11 01:31:52;;;;;;;13.73;11.80;;;16.00;99.90;;;;;;4991815;28;20534;-76
2021/06/11 01:34:31;;;;;;;12.85;11.55;;;16.30;99.90;;;;;;4991861;28;20437;-76
2021/06/11 01:37:13;;;;;;;13.85;12.40;;;16.60;99.90;;;;;;4991521;28;20564;-76
2021/06/11 01:39:40;;;;;;;16.10;12.63;;;15.60;99.90;;;;;;4991117;28;20073;-76
2021/06/11 01:42:07;;;;;;;15.73;11.30;;;15.70;99.90;;;;;;4991460;28;20276;-76
2021/06/11 01:44:38;;;;;;;15.50;12.27;;;15.80;99.90;;;;;;4991298;28;20030;-76
2021/06/11 01:47:05;;;;;;;13.75;11.60;;;15.70;99.90;;;;;;4991393;28;20026;-76
2021/06/11 19:51:36;;;;;;;5.13;3.60;;;24.70;99.90;;;;;;5037642;28;20312;-77
2021/06/11 19:54:24;;;;;;;5.15;4.32;;;21.40;99.90;;;;;;5012098;28;20709;-76
2021/06/11 19:56:51;;;;;;;6.63;3.70;;;21.20;99.90;;;;;;4998352;28;20501;-78
2021/06/11 19:59:19;;;;;;;5.57;3.35;;;21.10;99.90;;;;;;4986679;28;20091;-77
2021/06/11 20:01:46;;;;;;;6.20;3.67;;;21.00;99.90;;;;;;4987464;28;20038;-78
2021/06/11 20:04:16;;;;;;;4.88;3.75;;;21.00;99.90;;;;;;4983053;28;20023;-79
2021/06/11 20:06:43;;;;;;;5.90;3.92;;;20.90;99.90;;;;;;4983127;28;20113;-78
2021/06/11 20:09:13;;;;;;;5.28;3.65;;;20.80;99.90;;;;;;4980240;28;20034;-80
2021/06/11 20:11:39;;;;;;;8.77;4.03;;;20.80;99.90;;;;;;4982493;28;20387;-79
2021/06/11 20:14:07;;;;;;;6.45;4.53;;;20.60;99.90;;;;;;4984313;28;20046;-79
2021/06/11 20:16:33;;;;;;;6.57;5.45;;;20.70;99.90;;;;;;4985354;28;20023;-80
2021/06/11 20:19:02;;;;;;;9.15;5.40;;;20.70;99.90;;;;;;4983747;28;20050;-80
2021/06/11 20:21:28;;;;;;;8.10;4.88;;;20.70;99.90;;;;;;4984027;28;20084;-79
2021/06/11 20:23:54;;;;;;;6.97;5.32;;;20.70;99.90;;;;;;4985510;28;20066;-79
2021/06/11 20:26:20;;;;;;;6.95;4.60;;;20.70;99.90;;;;;;4984226;28;20025;-79
2021/06/11 20:28:46;;;;;;;6.93;4.50;;;20.70;99.90;;;;;;4984915;28;20239;-78
2021/06/11 20:31:15;;;;;;;5.40;4.40;;;20.70;99.90;;;;;;4984086;28;20077;-78
2021/06/11 20:33:42;;;;;;;7.43;4.68;;;20.80;99.90;;;;;;4983441;28;20027;-80
2021/06/11 20:36:08;;;;;;;4.80;4.25;;;20.60;99.90;;;;;;4984309;28;20431;-79
2021/06/11 20:38:35;;;;;;;6.68;4.43;;;20.50;99.90;;;;;;4983166;28;20442;-78
2021/06/11 20:41:02;;;;;;;5.32;4.40;;;20.40;99.90;;;;;;4982527;28;20454;-79
2021/06/11 20:43:28;;;;;;;5.40;4.20;;;20.40;99.90;;;;;;4983866;28;20039;-79
2021/06/11 20:45:54;;;;;;;10.77;4.80;;;20.40;99.90;;;;;;5005134;23;20107;-79
2021/06/11 20:48:20;;;;;;;5.20;4.68;;;20.30;99.90;;;;;;5019766;28;20090;-78
2021/06/11 20:50:45;;;;;;;4.30;3.90;;;20.30;99.90;;;;;;4995117;28;20041;-79
2021/06/11 20:53:12;;;;;;;6.15;4.07;;;20.40;99.90;;;;;;5004870;28;20509;-76
2021/06/11 20:55:41;;;;;;;6.82;4.63;;;20.40;99.90;;;;;;5068906;28;20111;-77
2021/06/11 20:58:08;;;;;;;7.20;4.70;;;20.40;99.90;;;;;;5093502;28;20048;-78
2021/06/11 21:00:35;;;;;;;5.97;3.90;;;20.40;99.90;;;;;;5089756;28;20456;-76
2021/06/11 21:03:01;;;;;;;9.15;4.47;;;20.40;99.90;;;;;;5088594;28;20036;-78
2021/06/11 21:05:27;;;;;;;5.55;4.18;;;20.40;99.90;;;;;;5097068;28;20016;-79
2021/06/11 21:07:54;;;;;;;5.90;4.28;;;20.30;99.90;;;;;;5097632;28;20031;-76
2021/06/11 21:10:20;;;;;;;9.95;4.70;;;20.00;99.90;;;;;;5081699;28;20032;-78
2021/06/11 21:12:49;;;;;;;4.55;4.05;;;20.00;99.90;;;;;;5079273;28;20024;-79
2021/06/11 21:15:16;;;;;;;4.50;4.10;;;19.90;99.90;;;;;;5092362;28;20517;-77
2021/06/11 21:17:43;;;;;;;8.13;4.20;;;19.80;99.90;;;;;;5085594;28;20596;-78
2021/06/11 21:20:11;;;;;;;6.47;4.75;;;19.70;99.90;;;;;;5074694;28;20115;-76
2021/06/11 21:22:37;;;;;;;8.05;4.38;;;19.60;99.90;;;;;;5087008;28;20089;-76
2021/06/11 21:25:06;;;;;;;6.15;4.68;;;19.50;99.90;;;;;;5096119;28;20028;-78
2021/06/11 21:27:34;;;;;;;9.15;4.80;;;19.40;99.90;;;;;;5082199;28;20028;-77
2021/06/11 21:29:59;;;;;;;7.88;4.63;;;19.40;99.90;;;;;;5069736;28;20028;-78
2021/06/11 21:32:25;;;;;;;5.40;4.40;;;19.40;99.90;;;;;;5079146;28;20060;-78
2021/06/11 21:34:51;;;;;;;9.43;5.18;;;19.40;99.90;;;;;;5067339;28;20085;-78
2021/06/11 21:37:16;;;;;;;5.57;4.80;;;19.30;99.90;;;;;;5071003;28;20025;-77
2021/06/11 21:39:42;;;;;;;13.18;5.18;;;19.30;99.90;;;;;;5068725;28;20017;-77
2021/06/11 21:42:08;;;;;;;5.93;4.82;;;19.30;99.90;;;;;;5071232;28;20514;-78
2021/06/11 21:44:34;;;;;;;8.82;4.82;;;19.30;99.90;;;;;;5049194;28;20659;-78
2021/06/11 21:47:00;;;;;;;8.15;5.22;;;19.30;99.90;;;;;;5071941;28;20024;-77
2021/06/11 21:49:25;;;;;;;6.97;5.07;;;19.30;99.90;;;;;;5067627;28;20036;-77
2021/06/11 21:51:52;;;;;;;5.47;4.97;;;19.40;99.90;;;;;;5068521;28;20210;-77
2021/06/11 21:54:19;;;;;;;6.63;4.93;;;19.40;99.90;;;;;;5069739;28;20676;-77
2021/06/11 21:56:45;;;;;;;8.15;4.88;;;19.10;99.90;;;;;;5083369;28;20108;-78
2021/06/11 21:59:11;;;;;;;7.45;5.28;;;19.10;99.90;;;;;;5069924;28;20388;-78
2021/06/11 22:01:37;;;;;;;6.78;5.35;;;19.10;99.90;;;;;;5073657;28;20127;-78
2021/06/11 22:04:04;;;;;;;8.18;5.63;;;19.00;99.90;;;;;;5071052;28;20032;-79
2021/06/11 22:06:30;;;;;;;6.68;5.03;;;19.00;99.90;;;;;;5077511;28;20080;-78
2021/06/11 22:08:55;;;;;;;8.18;5.13;;;19.00;99.90;;;;;;5095532;28;20024;-77
2021/06/11 22:11:22;;;;;;;7.78;5.28;;;18.90;99.90;;;;;;5091297;28;20496;-77
2021/06/11 22:13:47;;;;;;;6.20;5.47;;;18.90;99.90;;;;;;5097316;28;20051;-77
2021/06/11 22:16:14;;;;;;;9.90;5.85;;;18.90;99.90;;;;;;5080359;28;20021;-79
2021/06/11 22:18:41;;;;;;;8.50;5.93;;;19.00;99.90;;;;;;5092769;28;20492;-79
2021/06/11 22:21:07;;;;;;;5.80;5.00;;;19.60;99.90;;;;;;5092585;28;20036;-77
2021/06/11 22:23:33;;;;;;;6.38;4.97;;;18.90;99.90;;;;;;5074076;28;20039;-79
2021/06/11 22:26:00;;;;;;;6.28;5.38;;;18.80;99.90;;;;;;5074023;28;20024;-78
2021/06/11 22:28:25;;;;;;;9.07;5.40;;;18.80;99.90;;;;;;5085654;28;20036;-79
2021/06/11 22:30:52;;;;;;;5.90;5.13;;;18.80;99.90;;;;;;5089680;28;20028;-78
2021/06/11 22:33:20;;;;;;;6.72;5.07;;;18.80;99.90;;;;;;5089476;28;20028;-77
2021/06/11 22:35:47;;;;;;;7.40;5.40;;;18.80;99.90;;;;;;5094674;28;20562;-78
2021/06/11 22:38:14;;;;;;;7.15;5.45;;;18.80;99.90;;;;;;5097590;28;20275;-78
2021/06/11 22:40:40;;;;;;;7.35;5.60;;;18.60;99.90;;;;;;5096600;28;20028;-78
2021/06/11 22:43:07;;;;;;;6.70;6.00;;;18.80;99.90;;;;;;5097214;28;20350;-77
2021/06/11 22:45:33;;;;;;;7.82;5.50;;;18.60;99.90;;;;;;5090596;28;20034;-78
2021/06/11 22:48:00;;;;;;;8.50;5.93;;;18.50;99.90;;;;;;5096332;28;20060;-79
2021/06/11 22:50:30;;;;;;;6.93;6.22;;;18.60;99.90;;;;;;5057785;28;20032;-78
2021/06/11 22:52:57;;;;;;;6.85;5.80;;;19.30;99.90;;;;;;5069556;28;20408;-79
2021/06/11 22:55:24;;;;;;;9.07;5.75;;;18.70;99.90;;;;;;5094542;28;20024;-77
2021/06/11 22:57:51;;;;;;;7.43;6.10;;;18.50;99.90;;;;;;5082000;28;20017;-79
2021/06/11 23:00:22;;;;;;;7.72;5.85;;;18.50;99.90;;;;;;5070583;28;20032;-78
2021/06/11 23:02:48;;;;;;;7.70;6.25;;;18.50;99.90;;;;;;5085035;28;20369;-76
2021/06/11 23:05:14;;;;;;;7.15;5.85;;;18.40;99.90;;;;;;5092918;28;20097;-79
2021/06/11 23:07:40;;;;;;;6.68;5.97;;;18.40;99.90;;;;;;5090120;28;20181;-78
2021/06/11 23:10:07;;;;;;;12.48;6.50;;;18.20;99.90;;;;;;5092851;28;20032;-78
2021/06/11 23:12:33;;;;;;;7.32;6.28;;;15.70;99.90;;;;;;5087861;28;20016;-79
2021/06/11 23:14:59;;;;;;;7.30;5.93;;;18.20;99.90;;;;;;5092075;28;20024;-77
2021/06/11 23:17:24;;;;;;;8.82;7.07;;;18.10;99.90;;;;;;5084212;28;20105;-78
2021/06/11 23:19:50;;;;;;;7.45;6.75;;;18.00;99.90;;;;;;5054211;28;20186;-78
2021/06/11 23:22:16;;;;;;;7.53;6.72;;;18.10;99.90;;;;;;5082284;28;20032;-77
2021/06/11 23:24:42;;;;;;;7.20;5.72;;;18.10;99.90;;;;;;5093765;28;20036;-78
2021/06/11 23:27:09;;;;;;;7.38;6.53;;;18.00;99.90;;;;;;5091038;28;20016;-77
2021/06/11 23:29:35;;;;;;;8.43;5.85;;;17.90;99.90;;;;;;5077502;28;20096;-77
2021/06/11 23:32:01;;;;;;;8.85;6.50;;;18.10;99.90;;;;;;5084748;28;20028;-75
2021/06/11 23:34:27;;;;;;;9.57;6.78;;;17.80;99.90;;;;;;5096212;28;20023;-75
2021/06/11 23:36:52;;;;;;;9.07;6.95;;;17.90;99.90;;;;;;5071285;28;20031;-78
2021/06/11 23:39:18;;;;;;;10.55;6.90;;;17.70;99.90;;;;;;5072215;28;20043;-78
2021/06/11 23:41:45;;;;;;;7.82;7.13;;;17.60;99.90;;;;;;5059139;28;20016;-76
2021/06/11 23:44:11;;;;;;;9.50;7.55;;;17.60;99.90;;;;;;5092824;28;20035;-76
2021/06/11 23:46:38;;;;;;;9.32;7.40;;;17.70;99.90;;;;;;5053829;28;20024;-76
2021/06/11 23:49:03;;;;;;;9.52;7.05;;;17.50;99.90;;;;;;5069389;28;20021;-77
2021/06/11 23:51:29;;;;;;;8.95;7.72;;;17.50;99.90;;;;;;5072885;28;20534;-78
2021/06/11 23:53:55;;;;;;;11.20;9.38;;;17.40;99.90;;;;;;5094686;28;20107;-76
2021/06/11 23:56:21;;;;;;;12.05;8.15;;;17.40;99.90;;;;;;5093161;28;20044;-79
2021/06/11 23:58:47;;;;;;;9.60;7.88;;;17.30;99.90;;;;;;5075903;28;20534;-79
